Time;durP1;ratioP1;P1;durP2;ratioP2;P2;SDS_P1;SDS_P2;PMS_P1;PMS_P2;Temp;Humidity;BMP_temperature;BMP_pressure;BME280_temperature;BME280_humidity;BME280_pressure;Samples;Min_cycle;Max_cycle;Signal;HPM_P1;HPM_P2
2022/11/12 00:03:35;;;;;;;0.10;0.10;;;;;;;9.32;100.00;103094.13;10482402;28;20028;-74
2022/11/12 00:08:35;;;;;;;0.00;0.00;;;;;;;9.25;100.00;103098.09;10475358;28;20417;-74
2022/11/12 00:13:36;;;;;;;0.10;0.10;;;;;;;9.17;100.00;103087.09;10471071;28;20030;-74
2022/11/12 00:18:37;;;;;;;0.10;0.10;;;;;;;9.14;100.00;103100.59;10457206;28;20021;-72
2022/11/12 00:23:40;;;;;;;0.00;0.00;;;;;;;9.09;100.00;103090.22;10454372;28;20452;-72
2022/11/12 00:28:40;;;;;;;0.00;0.00;;;;;;;9.05;100.00;103094.03;10452885;28;20021;-72
2022/11/12 00:33:42;;;;;;;0.10;0.10;;;;;;;9.05;100.00;103094.03;10453691;28;20031;-72
2022/11/12 00:38:42;;;;;;;0.10;0.10;;;;;;;9.00;100.00;103090.78;10461293;28;20100;-72
2022/11/12 00:43:42;;;;;;;0.10;0.10;;;;;;;8.98;100.00;103090.88;10485711;28;20108;-72
2022/11/12 00:48:42;;;;;;;0.10;0.10;;;;;;;8.96;100.00;103100.75;10488434;28;20025;-72
2022/11/12 00:53:47;;;;;;;0.10;0.10;;;;;;;8.95;100.00;103098.19;10453404;28;20267;-72
2022/11/12 00:58:47;;;;;;;0.00;0.00;;;;;;;8.95;100.00;103103.50;10462828;28;20047;-72
2022/11/12 01:03:47;;;;;;;0.10;0.10;;;;;;;8.96;100.00;103102.53;10493834;28;20032;-72
2022/11/12 01:08:49;;;;;;;0.00;0.00;;;;;;;8.97;100.00;103105.13;10493245;28;20025;-72
2022/11/12 01:13:58;;;;;;;0.10;0.10;;;;;;;9.00;100.00;103101.41;10469971;28;20028;-72
2022/11/12 01:19:00;;;;;;;0.10;0.10;;;;;;;9.02;100.00;103105.69;10485238;28;20476;-72
2022/11/12 01:24:01;;;;;;;0.03;0.03;;;;;;;9.04;100.00;103106.44;10543730;22;20054;-75
2022/11/12 01:29:01;;;;;;;0.10;0.10;;;;;;;9.06;100.00;103111.69;10535736;28;20032;-75
2022/11/12 01:34:04;;;;;;;0.00;0.00;;;;;;;9.09;100.00;103100.00;10536685;28;20034;-75
2022/11/12 01:39:06;;;;;;;0.10;0.10;;;;;;;9.11;100.00;103108.75;10536745;28;20016;-75
2022/11/12 01:44:14;;;;;;;0.10;0.10;;;;;;;9.11;100.00;103106.09;10536459;28;20024;-75
2022/11/12 01:49:25;;;;;;;0.10;0.10;;;;;;;9.11;100.00;103111.41;10536340;28;20027;-75
2022/11/12 01:54:26;;;;;;;0.00;0.00;;;;;;;9.14;100.00;103105.91;10536364;28;20016;-75
2022/11/12 01:59:35;;;;;;;0.00;0.00;;;;;;;9.14;100.00;103097.94;10536958;28;20107;-75
2022/11/12 02:04:38;;;;;;;0.10;0.10;;;;;;;9.11;100.00;103093.66;10535752;28;20448;-75
2022/11/12 02:09:38;;;;;;;0.03;0.03;;;;;;;8.98;100.00;103087.34;10535328;28;20024;-74
2022/11/12 02:14:39;;;;;;;0.10;0.10;;;;;;;8.73;100.00;103059.63;10535413;28;20398;-74
2022/11/12 02:19:39;;;;;;;0.10;0.10;;;;;;;8.49;100.00;103083.16;10534983;28;20032;-74
2022/11/12 02:24:39;;;;;;;0.00;0.00;;;;;;;8.26;100.00;103073.88;10534547;28;20028;-74
2022/11/12 02:29:45;;;;;;;0.10;0.10;;;;;;;8.04;100.00;103053.03;10534936;28;20544;-75
2022/11/12 02:34:45;;;;;;;0.00;0.00;;;;;;;7.85;100.00;103084.19;10534757;28;20031;-74
2022/11/12 02:39:45;;;;;;;0.00;0.00;;;;;;;7.69;100.00;103078.91;10535251;28;20123;-75
2022/11/12 02:44:46;;;;;;;0.10;0.10;;;;;;;7.56;100.00;103093.75;10534448;28;20032;-75
2022/11/12 02:49:46;;;;;;;0.00;0.00;;;;;;;7.41;100.00;103069.78;10534445;28;20024;-75
2022/11/12 02:54:46;;;;;;;0.00;0.00;;;;;;;7.29;100.00;103070.47;10533089;28;20113;-75
2022/11/12 02:59:46;;;;;;;0.10;0.10;;;;;;;7.20;100.00;103078.91;10532969;28;20024;-75
2022/11/12 03:04:47;;;;;;;0.00;0.00;;;;;;;7.10;100.00;103098.88;10534605;28;20027;-75
2022/11/12 03:09:47;;;;;;;0.10;0.10;;;;;;;6.99;100.00;103083.56;10534014;28;20047;-75
2022/11/12 03:14:47;;;;;;;0.00;0.00;;;;;;;6.90;100.00;103092.00;10534403;28;20023;-74
2022/11/12 03:19:48;;;;;;;0.10;0.10;;;;;;;6.77;100.00;103111.16;10533922;28;20073;-75
2022/11/12 03:24:48;;;;;;;0.03;0.03;;;;;;;6.72;100.00;103101.72;10532775;28;20495;-74
2022/11/12 03:29:48;;;;;;;0.00;0.00;;;;;;;6.62;100.00;103114.59;10533627;28;20281;-74
2022/11/12 03:34:49;;;;;;;0.00;0.00;;;;;;;6.52;100.00;103100.97;10538760;28;20024;-74
2022/11/12 03:39:49;;;;;;;0.00;0.00;;;;;;;6.42;100.00;103112.94;10540274;28;20410;-74
2022/11/12 03:44:49;;;;;;;0.08;0.08;;;;;;;6.34;100.00;103123.94;10540052;28;20660;-75
2022/11/12 03:49:49;;;;;;;0.00;0.00;;;;;;;6.24;100.00;103103.28;10541001;28;20028;-74
2022/11/12 03:54:50;;;;;;;0.00;0.00;;;;;;;6.13;100.00;103109.06;10540854;28;20245;-74
2022/11/12 03:59:50;;;;;;;0.00;0.00;;;;;;;6.02;100.00;103114.03;10540607;28;20344;-75
2022/11/12 04:10:10;;;;;;;0.00;0.00;;;;;;;5.77;100.00;103122.25;10540256;28;20028;-74
2022/11/12 04:15:11;;;;;;;0.05;0.05;;;;;;;5.70;100.00;103110.22;10538546;28;20406;-74
2022/11/12 04:30:49;;;;;;;0.00;0.00;;;;;;;5.57;100.00;103115.22;10539468;28;20474;-75
2022/11/12 04:35:49;;;;;;;0.00;0.00;;;;;;;5.48;100.00;103120.94;10539148;28;20027;-75
2022/11/12 04:46:09;;;;;;;0.00;0.00;;;;;;;5.44;100.00;103121.09;10538359;28;20028;-74
2022/11/12 04:56:27;;;;;;;0.00;0.00;;;;;;;5.41;100.00;103129.16;10538378;28;20032;-74
2022/11/12 05:01:28;;;;;;;0.00;0.00;;;;;;;5.43;100.00;103118.50;10538218;28;20467;-75
2022/11/12 05:11:47;;;;;;;0.00;0.00;;;;;;;5.28;100.00;103127.13;10537565;28;20028;-74
2022/11/12 05:16:47;;;;;;;0.00;0.00;;;;;;;5.16;100.00;103126.75;10537690;28;20422;-75
2022/11/12 05:22:06;;;;;;;0.00;0.00;;;;;;;5.06;100.00;103138.66;10537259;28;20085;-75
2022/11/12 05:27:15;;;;;;;0.00;0.00;;;;;;;4.96;100.00;103122.31;10537249;28;20020;-75
2022/11/12 05:32:17;;;;;;;0.00;0.00;;;;;;;4.94;100.00;103128.59;10537192;28;20024;-75
2022/11/12 05:37:18;;;;;;;0.00;0.00;;;;;;;4.88;100.00;103129.72;10537000;28;20024;-75
2022/11/12 05:42:18;;;;;;;0.00;0.00;;;;;;;4.85;100.00;103113.16;10536809;28;20387;-75
2022/11/12 05:47:18;;;;;;;0.00;0.00;;;;;;;4.90;100.00;103137.59;10536585;28;20085;-75
2022/11/12 05:52:19;;;;;;;0.00;0.00;;;;;;;4.86;100.00;103133.34;10536345;28;20027;-75
2022/11/12 05:57:19;;;;;;;0.00;0.00;;;;;;;4.84;100.00;103114.94;10535259;28;20103;-75
2022/11/12 06:02:19;;;;;;;0.00;0.00;;;;;;;4.88;100.00;103129.72;10536538;28;20028;-75
2022/11/12 06:07:20;;;;;;;0.00;0.00;;;;;;;4.83;100.00;103131.72;10535834;28;20471;-75
2022/11/12 06:12:20;;;;;;;0.00;0.00;;;;;;;4.74;100.00;103114.47;10535629;28;20024;-75
2022/11/12 06:17:20;;;;;;;0.00;0.00;;;;;;;4.71;100.00;103132.22;10535567;28;20030;-75
2022/11/12 06:22:20;;;;;;;0.00;0.00;;;;;;;4.57;100.00;103127.53;10535603;28;20024;-75
2022/11/12 06:27:22;;;;;;;0.00;0.00;;;;;;;4.46;100.00;103138.53;10533939;28;20035;-75
2022/11/12 06:32:23;;;;;;;0.00;0.00;;;;;;;4.36;100.00;103144.22;10517128;28;20052;-75
2022/11/12 06:37:24;;;;;;;0.00;0.00;;;;;;;4.30;100.00;103151.50;10535511;28;20455;-75
2022/11/12 06:42:24;;;;;;;0.00;0.00;;;;;;;4.30;100.00;103156.78;10534824;28;20422;-75
2022/11/12 06:47:24;;;;;;;0.00;0.00;;;;;;;4.32;100.00;103143.50;10534980;28;20031;-75
2022/11/12 06:52:24;;;;;;;0.00;0.00;;;;;;;4.36;100.00;103160.06;10534480;28;20032;-75
2022/11/12 06:57:25;;;;;;;0.00;0.00;;;;;;;4.37;100.00;103167.94;10534399;28;20024;-75
2022/11/12 07:02:25;;;;;;;0.00;0.00;;;;;;;4.37;100.00;103162.66;10516313;28;20254;-75
2022/11/12 07:07:27;;;;;;;0.00;0.00;;;;;;;4.52;100.00;103171.72;10535930;28;20027;-75
2022/11/12 07:12:27;;;;;;;0.00;0.00;;;;;;;4.64;100.00;103173.84;10542302;28;20024;-75
2022/11/12 07:17:27;;;;;;;0.00;0.00;;;;;;;4.64;100.00;103181.78;10542226;28;20038;-75
2022/11/12 07:22:28;;;;;;;0.00;0.00;;;;;;;4.63;100.00;103179.22;10556212;22;20044;-73
2022/11/12 07:27:29;;;;;;;0.00;0.00;;;;;;;4.68;100.00;103191.31;10542008;28;20066;-73
2022/11/12 07:32:29;;;;;;;0.00;0.00;;;;;;;4.67;100.00;103186.94;10541719;28;20656;-74
2022/11/12 07:37:30;;;;;;;0.00;0.00;;;;;;;4.76;100.00;103189.19;10523397;28;20024;-73
2022/11/12 07:42:34;;;;;;;0.00;0.00;;;;;;;4.86;100.00;103197.59;10541324;28;20026;-73
2022/11/12 07:47:34;;;;;;;0.00;0.00;;;;;;;5.60;100.00;103189.97;10540955;28;20024;-73
2022/11/12 07:52:35;;;;;;;0.00;0.00;;;;;;;6.53;100.00;103200.66;10540584;28;20478;-73
2022/11/12 07:57:35;;;;;;;0.00;0.00;;;;;;;7.15;100.00;103192.28;10540497;28;20440;-73
2022/11/12 08:02:35;;;;;;;0.00;0.00;;;;;;;7.56;100.00;103198.06;10540346;28;20632;-73
2022/11/12 08:07:35;;;;;;;0.10;0.10;;;;;;;8.22;100.00;103209.53;10540000;28;20019;-73
2022/11/12 08:12:36;;;;;;;0.10;0.10;;;;;;;8.89;100.00;103196.88;10540458;28;20112;-73
2022/11/12 08:17:39;;;;;;;0.10;0.10;;;;;;;9.64;100.00;103205.66;10539701;28;20023;-73
2022/11/12 08:22:40;;;;;;;0.10;0.10;;;;;;;10.12;100.00;103214.16;10538219;28;20028;-73
2022/11/12 08:27:40;;;;;;;0.10;0.10;;;;;;;10.40;100.00;103230.13;10539228;28;20039;-72
2022/11/12 08:32:41;;;;;;;0.10;0.10;;;;;;;10.65;100.00;103217.88;10539260;28;20021;-73
2022/11/12 08:37:41;;;;;;;0.10;0.10;;;;;;;10.77;100.00;103222.38;10539252;28;20024;-73
2022/11/12 08:42:41;;;;;;;0.10;0.10;;;;;;;10.96;100.00;103213.16;10539095;28;20020;-74
2022/11/12 08:47:41;;;;;;;0.10;0.10;;;;;;;11.17;100.00;103214.38;10538569;28;20020;-73
2022/11/12 08:52:42;;;;;;;0.10;0.10;;;;;;;11.33;100.00;103214.16;10538140;28;20030;-73
2022/11/12 08:57:43;;;;;;;0.05;0.05;;;;;;;11.48;100.00;103238.94;10538279;28;20544;-73
2022/11/12 09:02:43;;;;;;;0.00;0.00;;;;;;;11.37;100.00;103225.47;10538059;28;20024;-74
2022/11/12 09:07:43;;;;;;;0.00;0.00;;;;;;;11.25;100.00;103248.50;10538141;28;20461;-73
2022/11/12 09:12:49;;;;;;;0.00;0.00;;;;;;;11.20;100.00;103240.84;10538007;28;20304;-74
2022/11/12 09:17:57;;;;;;;0.10;0.10;;;;;;;11.02;100.00;103247.41;10537640;28;20032;-73
2022/11/12 09:23:00;;;;;;;0.10;0.10;;;;;;;11.03;100.00;103244.66;10497289;28;20025;-74
2022/11/12 09:28:07;;;;;;;0.10;0.10;;;;;;;10.88;100.00;103251.84;10495442;28;20677;-74
2022/11/12 09:33:07;;;;;;;0.10;0.10;;;;;;;10.60;100.00;103238.63;10477020;28;20498;-73
2022/11/12 09:38:07;;;;;;;0.10;0.10;;;;;;;10.52;100.00;103241.78;10495102;28;20223;-73
2022/11/12 09:43:26;;;;;;;0.08;0.08;;;;;;;10.48;100.00;103248.28;10494784;28;20021;-73
2022/11/12 09:48:33;;;;;;;0.10;0.10;;;;;;;10.58;100.00;103248.53;10494536;28;20432;-73
2022/11/12 09:53:55;;;;;;;0.10;0.10;;;;;;;10.58;100.00;103243.19;10494307;28;20032;-71
2022/11/12 09:58:56;;;;;;;0.00;0.00;;;;;;;10.58;100.00;103240.53;10476451;28;20025;-73
2022/11/12 10:04:06;;;;;;;0.10;0.10;;;;;;;10.42;100.00;103246.88;10476222;28;20027;-72
2022/11/12 10:09:18;;;;;;;0.10;0.10;;;;;;;10.29;100.00;103248.59;10493878;28;20434;-72
2022/11/12 10:14:38;;;;;;;0.10;0.10;;;;;;;10.41;100.00;103253.16;10493743;28;20521;-73
2022/11/12 10:19:57;;;;;;;0.10;0.10;;;;;;;10.45;100.00;103242.31;10493705;28;20036;-73
2022/11/12 10:25:11;;;;;;;0.10;0.10;;;;;;;10.46;100.00;103262.66;10493402;28;20101;-72
2022/11/12 10:30:17;;;;;;;0.00;0.00;;;;;;;10.46;100.00;103255.50;10493432;28;20028;-73
2022/11/12 10:35:20;;;;;;;0.10;0.10;;;;;;;10.41;100.00;103263.81;10493063;28;20028;-73
2022/11/12 10:40:23;;;;;;;0.10;0.10;;;;;;;10.40;100.00;103271.91;10475285;28;20111;-73
2022/11/12 10:45:24;;;;;;;0.10;0.10;;;;;;;10.41;100.00;103258.50;10492500;28;20024;-73
2022/11/12 10:50:41;;;;;;;0.10;0.10;;;;;;;10.46;100.00;103254.66;10493212;28;20464;-73
2022/11/12 10:55:56;;;;;;;0.00;0.00;;;;;;;10.50;100.00;103256.16;10492718;28;20442;-73
2022/11/12 11:00:59;;;;;;;0.10;0.10;;;;;;;10.46;100.00;103262.66;10534228;28;20085;-74
2022/11/12 11:06:05;;;;;;;0.00;0.00;;;;;;;10.44;100.00;103249.41;10534047;28;20039;-73
2022/11/12 11:11:22;;;;;;;0.10;0.10;;;;;;;10.48;100.00;103266.09;10533941;28;20035;-72
2022/11/12 11:16:27;;;;;;;0.10;0.10;;;;;;;10.39;100.00;103243.56;10493744;28;20067;-73
2022/11/12 11:21:59;;;;;;;0.10;0.10;;;;;;;10.27;100.00;103234.53;10492604;28;20082;-72
2022/11/12 11:27:12;;;;;;;0.00;0.00;;;;;;;10.25;100.00;103247.06;10485598;28;20410;-73
2022/11/12 11:32:30;;;;;;;0.10;0.10;;;;;;;10.42;100.00;103243.34;10492021;28;20028;-74
2022/11/12 11:37:40;;;;;;;0.10;0.10;;;;;;;10.54;100.00;103247.88;10491994;28;20525;-74
2022/11/12 11:43:02;;;;;;;0.10;0.10;;;;;;;10.64;100.00;103250.78;10492167;28;20082;-74
2022/11/12 11:48:16;;;;;;;0.10;0.10;;;;;;;10.71;100.00;103246.78;10491881;28;20035;-74
2022/11/12 11:53:19;;;;;;;0.10;0.10;;;;;;;10.80;100.00;103254.19;10494535;28;20036;-74
2022/11/12 11:58:25;;;;;;;0.10;0.10;;;;;;;10.83;100.00;103253.97;10498278;28;20020;-73
2022/11/12 12:03:34;;;;;;;0.10;0.10;;;;;;;10.79;100.00;103244.47;10498801;28;20031;-74
2022/11/12 12:09:02;;;;;;;0.00;0.00;;;;;;;10.75;100.00;103240.28;10498528;28;20035;-74
2022/11/12 12:14:06;;;;;;;0.10;0.10;;;;;;;10.68;100.00;103235.47;10492731;28;20456;-74
2022/11/12 12:19:15;;;;;;;0.00;0.00;;;;;;;10.51;100.00;103229.44;10498311;28;20025;-74
2022/11/12 12:24:20;;;;;;;0.00;0.00;;;;;;;10.41;100.00;103228.31;10497976;28;20064;-72
2022/11/12 12:29:57;;;;;;;0.10;0.10;;;;;;;10.29;100.00;103229.94;10503857;28;20110;-78
2022/11/12 12:35:26;;;;;;;0.10;0.10;;;;;;;10.20;100.00;103228.69;10522406;28;20020;-77
2022/11/12 12:40:38;;;;;;;0.00;0.00;;;;;;;10.22;100.00;103220.63;10513381;28;20032;-76
2022/11/12 12:45:42;;;;;;;0.10;0.10;;;;;;;10.18;100.00;103206.66;10518631;28;20020;-76
2022/11/12 12:50:44;;;;;;;0.10;0.10;;;;;;;10.20;100.00;103201.22;10521699;28;20051;-80
2022/11/12 12:55:47;;;;;;;0.10;0.10;;;;;;;10.22;100.00;103190.47;10526262;28;20021;-79
2022/11/12 13:00:57;;;;;;;0.00;0.00;;;;;;;10.29;100.00;103197.13;10530037;28;20016;-79
2022/11/12 13:06:12;;;;;;;0.10;0.10;;;;;;;10.34;100.00;103189.72;10535735;28;20054;-78
2022/11/12 13:17:06;;;;;;;0.05;0.05;;;;;;;10.44;100.00;103182.81;10526534;28;20028;-77
2022/11/12 13:22:18;;;;;;;0.10;0.10;;;;;;;10.47;100.00;103171.09;10539190;22;20050;-78
2022/11/12 13:27:38;;;;;;;0.00;0.00;;;;;;;10.46;100.00;103174.72;10571189;28;20389;-77
2022/11/12 13:32:45;;;;;;;0.00;0.00;;;;;;;10.46;100.00;103172.91;10589555;28;20024;-77
2022/11/12 13:37:56;;;;;;;0.10;0.10;;;;;;;10.46;100.00;103169.41;10582881;28;20596;-76
2022/11/12 13:43:08;;;;;;;0.00;0.00;;;;;;;10.45;100.00;103167.69;10580507;28;20158;-76
2022/11/12 13:48:15;;;;;;;0.10;0.10;;;;;;;10.45;100.00;103160.56;10580289;28;20028;-76
2022/11/12 13:53:20;;;;;;;0.10;0.10;;;;;;;10.43;100.00;103165.97;10579162;28;20106;-76
2022/11/12 13:58:32;;;;;;;0.10;0.10;;;;;;;10.43;100.00;103157.97;10561551;28;20035;-76
2022/11/12 14:03:44;;;;;;;0.10;0.10;;;;;;;10.42;100.00;103153.63;10580324;28;20020;-76
2022/11/12 14:09:20;;;;;;;0.10;0.10;;;;;;;10.44;100.00;103161.50;10561435;28;20046;-76
2022/11/12 14:14:34;;;;;;;0.10;0.10;;;;;;;10.45;100.00;103162.38;10579499;28;20100;-76
2022/11/12 14:19:49;;;;;;;0.00;0.00;;;;;;;10.45;100.00;103151.72;10578888;28;20015;-76
2022/11/12 14:24:58;;;;;;;0.00;0.00;;;;;;;10.43;100.00;103155.31;10579125;28;20062;-77
2022/11/12 14:30:20;;;;;;;0.10;0.10;;;;;;;10.35;100.00;103151.44;10564553;28;20122;-77
2022/11/12 14:35:23;;;;;;;0.10;0.10;;;;;;;10.30;100.00;103159.75;10582679;28;20474;-77
2022/11/12 14:40:26;;;;;;;0.10;0.10;;;;;;;10.19;100.00;103159.56;10564315;28;20027;-77
2022/11/12 14:45:26;;;;;;;0.03;0.03;;;;;;;10.07;100.00;103155.03;10582578;28;20027;-77
2022/11/12 14:50:31;;;;;;;0.10;0.10;;;;;;;9.97;100.00;103147.63;10582042;28;20459;-77
2022/11/12 14:55:34;;;;;;;0.10;0.10;;;;;;;9.81;100.00;103149.56;10582545;28;20266;-77
2022/11/12 15:00:39;;;;;;;0.00;0.00;;;;;;;9.63;100.00;103148.06;10581598;28;20053;-79
2022/11/12 15:06:06;;;;;;;;;;;;;;;9.42;100.00;103151.09;10538102;28;20020;-79
2022/11/12 15:11:20;;;;;;;0.10;0.10;;;;;;;9.19;100.00;103141.03;10534141;28;19926;-79
2022/11/12 15:16:24;;;;;;;0.10;0.10;;;;;;;9.09;100.00;103139.88;10564300;28;20023;-79
2022/11/12 15:21:27;;;;;;;0.10;0.10;;;;;;;8.90;100.00;103132.16;10524658;28;20021;-78
2022/11/12 15:26:34;;;;;;;0.10;0.10;;;;;;;8.76;100.00;103127.69;10555601;28;20382;-79
2022/11/12 15:31:50;;;;;;;0.10;0.10;;;;;;;8.53;100.00;103121.91;10565798;28;20020;-78
2022/11/12 15:36:51;;;;;;;0.10;0.10;;;;;;;8.31;100.00;103114.28;10555975;28;20086;-79
2022/11/12 15:42:00;;;;;;;0.00;0.00;;;;;;;8.02;100.00;103115.09;10555190;28;20070;-79
2022/11/12 15:47:01;;;;;;;0.00;0.00;;;;;;;7.76;100.00;103108.59;10564031;28;20034;-78
2022/11/12 15:52:02;;;;;;;0.10;0.10;;;;;;;7.67;100.00;103131.19;10532778;28;20027;-79
2022/11/12 15:57:02;;;;;;;0.10;0.10;;;;;;;7.41;100.00;103119.31;10577149;28;20016;-79
2022/11/12 16:02:02;;;;;;;0.08;0.08;;;;;;;7.19;100.00;103125.78;10528101;28;20020;-80
2022/11/12 16:07:05;;;;;;;0.03;0.03;;;;;;;6.89;100.00;103124.72;10572856;28;20035;-79
2022/11/12 16:12:10;;;;;;;0.10;0.10;;;;;;;6.70;100.00;103136.25;10547119;28;20028;-79
2022/11/12 16:17:13;;;;;;;0.00;0.00;;;;;;;6.52;100.00;103134.53;10540158;28;20030;-77
2022/11/12 16:22:13;;;;;;;0.00;0.00;;;;;;;6.39;100.00;103130.78;10562562;28;20036;-79
2022/11/12 16:27:14;;;;;;;0.00;0.00;;;;;;;6.23;100.00;103136.81;10550171;28;20054;-79
2022/11/12 16:32:15;;;;;;;0.10;0.10;;;;;;;6.12;100.00;103137.34;10555657;28;20035;-78
2022/11/12 16:37:15;;;;;;;0.10;0.10;;;;;;;6.10;100.00;103140.97;10579533;28;20107;-79
2022/11/12 16:42:18;;;;;;;0.00;0.00;;;;;;;6.03;100.00;103145.72;10567864;28;20018;-81
2022/11/12 16:47:19;;;;;;;0.00;0.00;;;;;;;5.83;100.00;103146.63;10559298;28;20023;-80
2022/11/12 16:52:19;;;;;;;0.10;0.10;;;;;;;5.76;100.00;103142.56;10557004;28;20103;-81
2022/11/12 16:57:20;;;;;;;0.00;0.00;;;;;;;5.74;100.00;103149.69;10574054;28;20348;-81
2022/11/12 17:02:20;;;;;;;0.00;0.00;;;;;;;5.58;100.00;103149.53;10545393;28;20040;-80
2022/11/12 17:07:21;;;;;;;0.00;0.00;;;;;;;5.48;100.00;103140.31;10579702;28;20482;-79
2022/11/12 17:12:21;;;;;;;0.00;0.00;;;;;;;5.35;100.00;103141.78;10533396;28;20012;-81
2022/11/12 17:17:21;;;;;;;0.00;0.00;;;;;;;5.21;100.00;103132.69;10543247;28;20031;-80
2022/11/12 17:22:21;;;;;;;0.00;0.00;;;;;;;5.06;100.00;103119.28;10516893;28;20023;-81
2022/11/12 17:27:22;;;;;;;0.00;0.00;;;;;;;5.06;100.00;103114.00;10579997;28;20080;-80
2022/11/12 17:32:23;;;;;;;0.00;0.00;;;;;;;5.13;100.00;103112.81;10585137;28;20015;-80
2022/11/12 17:37:24;;;;;;;0.00;0.00;;;;;;;5.22;100.00;103107.13;10564280;28;20016;-79
2022/11/12 17:42:24;;;;;;;0.00;0.00;;;;;;;5.03;100.00;103116.78;10565847;28;20397;-80
2022/11/12 17:47:24;;;;;;;0.00;0.00;;;;;;;5.05;100.00;103118.41;10565520;28;20556;-80
2022/11/12 17:52:25;;;;;;;0.00;0.00;;;;;;;4.92;100.00;103120.75;10552933;28;20772;-80
2022/11/12 17:57:25;;;;;;;0.00;0.00;;;;;;;4.72;100.00;103113.69;10526137;28;20318;-80
2022/11/12 18:02:28;;;;;;;0.00;0.00;;;;;;;4.53;100.00;103110.94;10542201;28;20390;-80
2022/11/12 18:07:28;;;;;;;0.00;0.00;;;;;;;4.42;100.00;103104.41;10546595;28;20027;-80
2022/11/12 18:12:28;;;;;;;0.00;0.00;;;;;;;4.39;100.00;103113.28;10531411;28;20030;-80
2022/11/12 18:17:29;;;;;;;0.00;0.00;;;;;;;4.39;100.00;103097.47;10558930;28;20111;-80
2022/11/12 18:22:29;;;;;;;0.00;0.00;;;;;;;4.37;100.00;103098.47;10552382;28;20019;-80
2022/11/12 18:27:29;;;;;;;0.00;0.00;;;;;;;4.37;100.00;103091.41;10566456;28;20110;-80
2022/11/12 18:32:30;;;;;;;0.00;0.00;;;;;;;4.28;100.00;103087.38;10558267;28;20032;-79
2022/11/12 18:37:30;;;;;;;0.00;0.00;;;;;;;4.21;100.00;103075.34;10551999;28;20031;-80
2022/11/12 18:42:30;;;;;;;0.00;0.00;;;;;;;4.24;100.00;103074.34;10531173;28;20016;-80
2022/11/12 18:47:31;;;;;;;0.00;0.00;;;;;;;4.40;100.00;103064.88;10554784;28;20107;-80
2022/11/12 18:52:31;;;;;;;0.00;0.00;;;;;;;4.50;100.00;103068.84;10537167;28;20092;-80
2022/11/12 18:57:31;;;;;;;0.00;0.00;;;;;;;4.50;100.00;103065.34;10548060;28;20022;-79
2022/11/12 19:02:32;;;;;;;0.00;0.00;;;;;;;4.56;100.00;103058.97;10576764;28;20068;-80
2022/11/12 19:07:32;;;;;;;0.00;0.00;;;;;;;4.61;100.00;103055.19;10573730;28;20030;-80
2022/11/12 19:12:32;;;;;;;0.00;0.00;;;;;;;4.64;100.00;103057.69;10563466;28;20020;-80
2022/11/12 19:17:32;;;;;;;0.00;0.00;;;;;;;4.74;100.00;103053.75;10592781;28;20289;-81
2022/11/12 19:22:33;;;;;;;0.00;0.00;;;;;;;4.76;100.00;103040.47;10600524;22;20048;-94
2022/11/12 19:27:33;;;;;;;0.00;0.00;;;;;;;4.93;100.00;103064.34;10533930;22;20064;-79
2022/11/12 19:32:33;;;;;;;0.00;0.00;;;;;;;4.70;100.00;103059.22;10495017;28;20056;-79
2022/11/12 19:37:34;;;;;;;0.00;0.00;;;;;;;4.37;100.00;103062.38;10548928;28;20080;-80
2022/11/12 19:42:35;;;;;;;0.00;0.00;;;;;;;4.13;100.00;103045.78;10509232;28;20040;-79
2022/11/12 19:47:35;;;;;;;0.00;0.00;;;;;;;4.12;100.00;103041.41;10530705;28;20023;-78
2022/11/12 19:52:35;;;;;;;0.00;0.00;;;;;;;4.24;100.00;103034.78;10509689;28;20107;-79
2022/11/12 19:57:36;;;;;;;0.00;0.00;;;;;;;4.56;100.00;103035.19;10536689;28;20020;-79
2022/11/12 20:02:36;;;;;;;0.00;0.00;;;;;;;4.59;100.00;103029.78;10502549;28;20013;-79
2022/11/12 20:07:36;;;;;;;0.00;0.00;;;;;;;4.39;100.00;103036.75;10506152;28;20016;-79
2022/11/12 20:12:38;;;;;;;0.00;0.00;;;;;;;4.23;100.00;103033.06;10512302;28;20038;-78
2022/11/12 20:17:39;;;;;;;0.00;0.00;;;;;;;4.19;100.00;103031.47;10545097;28;20266;-79
2022/11/12 20:22:39;;;;;;;0.00;0.00;;;;;;;4.05;100.00;103037.34;10507189;28;20024;-79
2022/11/12 20:27:39;;;;;;;0.00;0.00;;;;;;;3.93;100.00;103022.88;10510096;28;20088;-79
2022/11/12 20:32:40;;;;;;;0.00;0.00;;;;;;;3.83;100.00;103024.16;10488583;28;20093;-80
2022/11/12 20:37:40;;;;;;;0.00;0.00;;;;;;;3.87;100.00;103025.75;10504749;28;20166;-80
2022/11/12 20:42:40;;;;;;;0.00;0.00;;;;;;;3.89;100.00;103023.91;10539187;28;20023;-80
2022/11/12 20:47:41;;;;;;;0.00;0.00;;;;;;;3.71;100.00;103014.94;10547398;28;20023;-80
2022/11/12 20:52:41;;;;;;;0.00;0.00;;;;;;;4.01;100.00;103017.25;10507291;28;20029;-78
2022/11/12 20:57:41;;;;;;;0.00;0.00;;;;;;;4.23;100.00;103010.19;10487391;28;20016;-80
2022/11/12 21:02:42;;;;;;;0.00;0.00;;;;;;;4.46;100.00;103011.84;10510123;28;20012;-79
2022/11/12 21:07:42;;;;;;;0.00;0.00;;;;;;;5.10;100.00;103023.13;10543928;28;20024;-79
2022/11/12 21:12:42;;;;;;;0.00;0.00;;;;;;;5.16;100.00;103015.78;10546359;28;20026;-79
2022/11/12 21:17:43;;;;;;;0.00;0.00;;;;;;;5.02;100.00;103017.34;10545580;28;20031;-80
2022/11/12 21:22:43;;;;;;;0.00;0.00;;;;;;;4.68;100.00;103016.19;10530023;28;20016;-80
2022/11/12 21:27:43;;;;;;;0.00;0.00;;;;;;;4.24;100.00;103003.97;10532013;28;20576;-80
2022/11/12 21:32:44;;;;;;;0.00;0.00;;;;;;;4.04;100.00;103004.84;10544694;28;20078;-80
2022/11/12 21:37:44;;;;;;;0.00;0.00;;;;;;;3.90;100.00;103001.03;10534983;28;20066;-78
2022/11/12 21:42:45;;;;;;;0.00;0.00;;;;;;;3.82;100.00;102996.09;10510675;28;20486;-80
2022/11/12 21:47:45;;;;;;;0.00;0.00;;;;;;;3.78;100.00;102994.47;10513518;28;20039;-79
2022/11/12 21:52:45;;;;;;;0.00;0.00;;;;;;;3.72;100.00;102994.72;10522485;28;20475;-80
2022/11/12 21:57:46;;;;;;;0.00;0.00;;;;;;;3.76;100.00;102996.34;10535764;28;20112;-79
2022/11/12 22:02:46;;;;;;;0.00;0.00;;;;;;;3.76;100.00;102991.91;10500722;28;20033;-79
2022/11/12 22:07:46;;;;;;;0.00;0.00;;;;;;;3.78;100.00;102995.34;10499653;28;20604;-81
2022/11/12 22:12:46;;;;;;;0.00;0.00;;;;;;;3.80;100.00;102997.91;10495034;28;20470;-80
2022/11/12 22:17:47;;;;;;;0.00;0.00;;;;;;;3.77;100.00;102987.50;10542692;28;20258;-79
2022/11/12 22:22:50;;;;;;;0.00;0.00;;;;;;;3.77;100.00;103003.31;10526439;28;20016;-79
2022/11/12 22:27:51;;;;;;;0.00;0.00;;;;;;;3.75;100.00;103003.38;10512551;28;20390;-81
2022/11/12 22:32:51;;;;;;;0.00;0.00;;;;;;;3.77;100.00;103005.94;10500063;28;20077;-81
2022/11/12 22:37:53;;;;;;;0.00;0.00;;;;;;;3.83;100.00;103000.41;10483091;28;20400;-81
2022/11/12 22:42:53;;;;;;;0.00;0.00;;;;;;;3.69;100.00;102992.22;10523660;28;20070;-80
2022/11/12 22:47:54;;;;;;;0.00;0.00;;;;;;;3.55;100.00;102991.00;10532645;28;20095;-80
2022/11/12 22:52:55;;;;;;;0.00;0.00;;;;;;;3.52;100.00;102987.59;10500041;28;20020;-81
2022/11/12 22:57:58;;;;;;;0.00;0.00;;;;;;;3.58;100.00;102990.03;10481278;28;20020;-80
2022/11/12 23:02:58;;;;;;;0.00;0.00;;;;;;;3.59;100.00;102979.41;10499476;28;20461;-80
2022/11/12 23:07:59;;;;;;;0.00;0.00;;;;;;;3.50;100.00;102971.88;10499143;28;20020;-80
2022/11/12 23:12:59;;;;;;;0.00;0.00;;;;;;;3.46;100.00;102974.66;10507837;28;20369;-81
2022/11/12 23:18:00;;;;;;;0.00;0.00;;;;;;;3.36;100.00;102971.56;10497574;28;20024;-81
2022/11/12 23:23:00;;;;;;;0.00;0.00;;;;;;;3.27;100.00;102975.41;10508450;28;20028;-80
2022/11/12 23:28:00;;;;;;;0.00;0.00;;;;;;;3.27;100.00;102985.09;10480579;28;20398;-81
2022/11/12 23:33:01;;;;;;;0.00;0.00;;;;;;;3.27;100.00;102987.72;10498882;28;20086;-81
2022/11/12 23:38:01;;;;;;;0.00;0.00;;;;;;;3.20;100.00;102987.09;10486413;28;20120;-81
2022/11/12 23:43:01;;;;;;;0.00;0.00;;;;;;;3.16;100.00;102991.59;10520727;28;20501;-81
2022/11/12 23:48:02;;;;;;;0.00;0.00;;;;;;;3.13;100.00;102988.22;10497811;28;20040;-81